Time;durP1;ratioP1;P1;durP2;ratioP2;P2;SDS_P1;SDS_P2;PMS_P1;PMS_P2;Temp;Humidity;BMP_temperature;BMP_pressure;BME280_temperature;BME280_humidity;BME280_pressure;Samples;Min_cycle;Max_cycle;Signal;HPM_P1;HPM_P2
2024/04/07 00:01:05;;;;;;;1.23;0.80;;;12.90;67.10;;;;;;5094236;28;20587;-66
2024/04/07 00:03:31;;;;;;;0.97;0.90;;;12.90;67.60;;;;;;5094260;28;20399;-66
2024/04/07 00:05:57;;;;;;;1.00;0.57;;;12.80;67.40;;;;;;5093025;28;20172;-66
2024/04/07 00:08:23;;;;;;;0.50;0.50;;;12.90;67.20;;;;;;5094104;28;20418;-66
2024/04/07 00:10:48;;;;;;;2.07;0.73;;;12.90;66.40;;;;;;5093667;28;20206;-66
2024/04/07 00:13:14;;;;;;;1.33;0.73;;;12.80;67.60;;;;;;5093804;28;20405;-66
2024/04/07 00:15:39;;;;;;;1.00;0.90;;;12.80;66.50;;;;;;5093007;28;20169;-66
2024/04/07 00:18:06;;;;;;;1.00;0.80;;;12.80;68.20;;;;;;5093822;28;20610;-66
2024/04/07 00:20:31;;;;;;;1.87;0.67;;;12.80;68.60;;;;;;5093494;28;20192;-66
2024/04/07 00:22:57;;;;;;;3.60;0.77;;;13.70;68.10;;;;;;5093881;28;20459;-66
2024/04/07 00:25:22;;;;;;;1.03;0.70;;;13.00;67.40;;;;;;5093675;28;20176;-65
2024/04/07 00:27:48;;;;;;;1.17;1.00;;;13.00;68.40;;;;;;5093920;28;20190;-66
2024/04/07 00:30:13;;;;;;;1.50;0.97;;;13.00;68.80;;;;;;5093250;28;20291;-65
2024/04/07 00:32:39;;;;;;;1.70;1.10;;;13.00;70.30;;;;;;5093661;28;20688;-65
2024/04/07 00:35:05;;;;;;;1.03;0.73;;;12.90;70.10;;;;;;5093672;28;20225;-65
2024/04/07 00:37:31;;;;;;;2.37;0.77;;;12.80;71.80;;;;;;5093411;28;20169;-65
2024/04/07 00:39:56;;;;;;;1.00;0.90;;;12.80;73.50;;;;;;5093097;28;20951;-65
2024/04/07 00:42:22;;;;;;;1.50;1.03;;;12.70;74.90;;;;;;5093392;28;20172;-65
2024/04/07 00:44:48;;;;;;;0.80;0.80;;;12.60;74.30;;;;;;5093405;28;20399;-65
2024/04/07 00:47:14;;;;;;;1.30;0.77;;;12.60;74.00;;;;;;5093652;28;20793;-65
2024/04/07 00:49:43;;;;;;;1.07;0.93;;;12.90;73.80;;;;;;5093051;28;20424;-65
2024/04/07 00:52:10;;;;;;;2.80;0.80;;;12.70;70.70;;;;;;5093233;28;20414;-65
2024/04/07 00:54:35;;;;;;;1.23;0.90;;;12.80;71.10;;;;;;5093122;28;20414;-65
2024/04/07 00:57:01;;;;;;;1.10;0.87;;;12.80;73.60;;;;;;5093209;28;20413;-65
2024/04/07 00:59:27;;;;;;;1.33;0.70;;;12.80;73.70;;;;;;5092691;28;20261;-65
2024/04/07 01:01:52;;;;;;;0.90;0.90;;;12.80;73.10;;;;;;5093060;28;20165;-65
2024/04/07 01:04:18;;;;;;;2.50;1.00;;;12.80;71.80;;;;;;5093004;28;20169;-65
2024/04/07 01:06:44;;;;;;;1.00;0.90;;;12.90;72.20;;;;;;5092945;28;20214;-66
2024/04/07 01:09:09;;;;;;;2.23;1.33;;;12.80;74.30;;;;;;5093350;28;20167;-65
2024/04/07 01:11:35;;;;;;;1.23;0.80;;;12.90;74.90;;;;;;5092893;28;20186;-65
2024/04/07 01:14:02;;;;;;;0.97;0.97;;;12.90;73.90;;;;;;5093074;28;20502;-66
2024/04/07 01:16:28;;;;;;;1.17;0.80;;;12.90;74.90;;;;;;5092806;28;20191;-66
2024/04/07 01:18:54;;;;;;;2.00;0.80;;;12.90;75.20;;;;;;5092514;28;20448;-66
2024/04/07 01:21:19;;;;;;;0.80;0.80;;;12.70;74.90;;;;;;5092526;28;20552;-66
2024/04/07 01:23:45;;;;;;;0.87;0.87;;;12.80;74.40;;;;;;5092595;28;20173;-66
2024/04/07 01:26:11;;;;;;;0.77;0.77;;;12.80;74.20;;;;;;5092268;28;20251;-66
2024/04/07 01:28:36;;;;;;;1.00;0.80;;;12.90;74.60;;;;;;5092523;28;20184;-66
2024/04/07 01:31:02;;;;;;;2.60;1.00;;;13.00;75.50;;;;;;5092231;28;20212;-66
2024/04/07 01:33:28;;;;;;;0.80;0.80;;;13.00;73.10;;;;;;5092929;28;20173;-66
2024/04/07 01:35:53;;;;;;;1.13;1.03;;;13.00;73.30;;;;;;5092521;28;20179;-66
2024/04/07 01:38:19;;;;;;;1.10;0.60;;;13.00;73.90;;;;;;5092229;28;20197;-66
2024/04/07 01:40:47;;;;;;;1.20;1.10;;;13.00;73.60;;;;;;5092106;28;20502;-66
2024/04/07 01:43:12;;;;;;;1.10;0.87;;;13.00;74.20;;;;;;5092345;28;20402;-66
2024/04/07 01:45:38;;;;;;;1.10;1.00;;;13.10;73.40;;;;;;5092305;28;20406;-66
2024/04/07 01:48:04;;;;;;;1.03;1.03;;;13.10;71.20;;;;;;5092327;28;20172;-66
2024/04/07 01:50:30;;;;;;;5.80;0.83;;;13.30;70.70;;;;;;5091903;28;20188;-66
2024/04/07 01:52:56;;;;;;;1.20;1.10;;;13.30;73.20;;;;;;5092583;28;20885;-66
2024/04/07 01:55:21;;;;;;;0.80;0.80;;;13.30;75.60;;;;;;5092266;28;20172;-66
2024/04/07 01:57:47;;;;;;;1.57;1.07;;;13.20;76.20;;;;;;5092002;28;20253;-66
2024/04/07 02:00:13;;;;;;;1.63;1.10;;;13.10;75.60;;;;;;5091846;28;20189;-66
2024/04/07 02:02:39;;;;;;;1.37;0.90;;;13.20;75.80;;;;;;5092059;28;20172;-66
2024/04/07 02:05:05;;;;;;;0.97;0.87;;;13.20;75.00;;;;;;5092020;28;20173;-66
2024/04/07 02:07:32;;;;;;;2.33;1.10;;;13.20;73.40;;;;;;5091840;28;20407;-66
2024/04/07 02:09:58;;;;;;;1.50;1.40;;;13.20;77.20;;;;;;5090649;28;20576;-66
2024/04/07 02:12:24;;;;;;;1.10;1.00;;;13.20;77.60;;;;;;5090824;28;20427;-66
2024/04/07 02:14:50;;;;;;;0.83;0.83;;;13.20;76.80;;;;;;5091916;28;20399;-66
2024/04/07 02:17:15;;;;;;;2.40;1.30;;;13.00;76.10;;;;;;5091991;28;20169;-66
2024/04/07 02:19:41;;;;;;;2.80;0.83;;;13.10;77.00;;;;;;5091526;28;20216;-66
2024/04/07 02:22:07;;;;;;;1.27;1.20;;;13.10;77.40;;;;;;5091711;28;20179;-66
2024/04/07 02:24:33;;;;;;;0.70;0.70;;;13.00;78.80;;;;;;5091841;28;20168;-66
2024/04/07 02:26:58;;;;;;;1.00;0.90;;;13.00;79.70;;;;;;5091870;28;20220;-66
2024/04/07 02:29:24;;;;;;;1.00;0.93;;;12.80;79.30;;;;;;5091501;28;20172;-66
2024/04/07 02:31:50;;;;;;;1.83;1.13;;;12.80;79.10;;;;;;5112021;22;20266;-60
2024/04/07 02:34:16;;;;;;;2.53;1.20;;;13.00;78.20;;;;;;5091575;28;20408;-61
2024/04/07 02:36:42;;;;;;;1.00;1.00;;;13.00;78.00;;;;;;5091813;28;20397;-61
2024/04/07 02:39:09;;;;;;;0.60;0.60;;;13.00;79.00;;;;;;5095148;28;20203;-61
2024/04/07 02:41:40;;;;;;;1.27;0.97;;;13.10;79.40;;;;;;5095487;28;20193;-61
2024/04/07 02:44:06;;;;;;;1.77;1.20;;;13.00;79.60;;;;;;5095999;28;20988;-60
2024/04/07 02:49:16;;;;;;;3.47;0.80;;;12.90;79.50;;;;;;5095524;28;20402;-60
2024/04/07 02:51:42;;;;;;;0.80;0.60;;;12.90;79.30;;;;;;5095400;28;20803;-61
2024/04/07 02:54:09;;;;;;;1.23;1.13;;;12.90;78.60;;;;;;5095424;28;20184;-60
2024/04/07 02:56:35;;;;;;;0.70;0.70;;;12.80;79.00;;;;;;5095445;28;20403;-60
2024/04/07 02:59:01;;;;;;;1.27;0.93;;;12.80;80.10;;;;;;5095175;28;20496;-61
2024/04/07 03:01:27;;;;;;;0.97;0.97;;;12.70;81.70;;;;;;5095087;28;20455;-60
2024/04/07 03:03:52;;;;;;;2.97;1.43;;;12.70;82.20;;;;;;5095391;28;20165;-60
2024/04/07 03:06:19;;;;;;;1.13;1.03;;;12.70;81.70;;;;;;5095307;28;20161;-59
2024/04/07 03:08:45;;;;;;;1.03;0.93;;;12.60;80.70;;;;;;5095029;28;20197;-60
2024/04/07 03:11:10;;;;;;;1.57;1.27;;;12.60;80.10;;;;;;5095007;28;20423;-61
2024/04/07 03:13:36;;;;;;;0.73;0.73;;;12.60;79.50;;;;;;5095223;28;20414;-60
2024/04/07 03:16:09;;;;;;;0.73;0.73;;;12.60;77.70;;;;;;5095014;28;20237;-61
2024/04/07 03:18:35;;;;;;;0.83;0.60;;;12.60;79.00;;;;;;5095025;28;20732;-61
2024/04/07 03:21:00;;;;;;;1.20;1.20;;;12.60;78.90;;;;;;5094846;28;20430;-60
2024/04/07 03:23:26;;;;;;;0.87;0.87;;;12.50;78.70;;;;;;5095017;28;20172;-61
2024/04/07 03:25:51;;;;;;;1.63;1.07;;;12.50;79.30;;;;;;5094905;28;20591;-60
2024/04/07 03:28:17;;;;;;;0.90;0.90;;;12.40;81.60;;;;;;5094816;28;20168;-60
2024/04/07 03:30:42;;;;;;;0.90;0.90;;;12.20;83.60;;;;;;5094323;28;20657;-60
2024/04/07 03:33:08;;;;;;;2.87;1.37;;;12.20;82.80;;;;;;5094867;28;20175;-60
2024/04/07 03:35:34;;;;;;;1.53;0.70;;;12.20;83.40;;;;;;5094765;28;20213;-60
2024/04/07 03:37:59;;;;;;;0.93;0.93;;;12.10;84.30;;;;;;5094596;28;20192;-61
2024/04/07 03:40:26;;;;;;;2.40;0.80;;;12.10;84.00;;;;;;5094316;28;20623;-60
2024/04/07 03:42:51;;;;;;;3.03;1.10;;;12.10;84.70;;;;;;5094563;28;20165;-60
2024/04/07 03:45:17;;;;;;;1.10;0.70;;;11.90;85.60;;;;;;5094543;28;20780;-60
2024/04/07 03:47:43;;;;;;;2.53;1.07;;;11.80;86.40;;;;;;5094604;28;20414;-60
2024/04/07 03:50:08;;;;;;;2.97;0.90;;;11.80;86.40;;;;;;5093858;28;20275;-60
2024/04/07 03:52:34;;;;;;;1.60;0.83;;;11.80;86.10;;;;;;5094446;28;20264;-60
2024/04/07 03:55:01;;;;;;;4.40;0.90;;;11.80;85.80;;;;;;5094401;28;20243;-61
2024/04/07 03:57:27;;;;;;;4.53;3.40;;;11.90;86.20;;;;;;5094130;28;20407;-60
2024/04/07 03:59:54;;;;;;;1.70;0.83;;;11.90;85.30;;;;;;5093888;28;20861;-60
2024/04/07 04:02:25;;;;;;;1.43;1.33;;;11.90;86.00;;;;;;5094421;28;20434;-60
2024/04/07 04:05:03;;;;;;;1.10;1.00;;;11.80;86.30;;;;;;5094227;28;20418;-60
2024/04/07 04:07:30;;;;;;;2.23;1.07;;;11.70;86.50;;;;;;5094106;28;20460;-60
2024/04/07 04:09:59;;;;;;;1.67;1.20;;;11.70;86.20;;;;;;5093626;28;20435;-60
2024/04/07 04:12:26;;;;;;;6.27;1.23;;;11.90;82.00;;;;;;5094045;28;20450;-60
2024/04/07 04:14:53;;;;;;;2.20;1.30;;;11.90;85.10;;;;;;5093930;28;20901;-60
2024/04/07 04:17:19;;;;;;;2.00;1.10;;;11.90;85.00;;;;;;5094208;28;20961;-60
2024/04/07 04:19:45;;;;;;;2.07;1.10;;;12.00;84.00;;;;;;5093442;28;20449;-61
2024/04/07 04:22:11;;;;;;;1.03;0.87;;;11.90;83.50;;;;;;5093870;28;20413;-60
2024/04/07 04:24:37;;;;;;;1.87;1.63;;;11.90;82.50;;;;;;5094159;28;20199;-60
2024/04/07 04:27:03;;;;;;;2.93;2.40;;;12.00;82.60;;;;;;5093837;28;20461;-60
2024/04/07 04:29:31;;;;;;;0.93;0.93;;;12.00;82.90;;;;;;5093396;28;20173;-60
2024/04/07 04:31:57;;;;;;;0.97;0.97;;;12.00;81.90;;;;;;5093523;28;20886;-60
2024/04/07 04:34:23;;;;;;;3.03;1.17;;;12.00;84.10;;;;;;5093624;28;20448;-60
2024/04/07 04:36:50;;;;;;;2.50;1.33;;;12.00;82.90;;;;;;5093555;28;20415;-60
2024/04/07 04:39:15;;;;;;;4.23;1.57;;;12.10;83.60;;;;;;5093099;28;20990;-60
2024/04/07 04:41:45;;;;;;;2.67;1.10;;;12.10;81.30;;;;;;5093256;28;20457;-60
2024/04/07 04:44:14;;;;;;;0.70;0.53;;;12.20;81.90;;;;;;5093403;28;20422;-60
2024/04/07 04:46:41;;;;;;;1.53;0.80;;;12.30;79.10;;;;;;5093362;28;20399;-60
2024/04/07 04:49:11;;;;;;;1.50;1.40;;;12.30;81.40;;;;;;5092470;28;20829;-61
2024/04/07 04:51:36;;;;;;;2.20;1.30;;;12.40;81.60;;;;;;5092766;28;20560;-60
2024/04/07 04:54:03;;;;;;;2.00;0.90;;;12.50;74.80;;;;;;5093246;28;20486;-61
2024/04/07 04:56:29;;;;;;;2.70;1.77;;;12.70;75.40;;;;;;5093182;28;20407;-60
2024/04/07 04:58:57;;;;;;;4.83;2.00;;;13.00;72.60;;;;;;5092882;28;20561;-61
2024/04/07 05:01:23;;;;;;;2.10;1.30;;;13.20;72.50;;;;;;5092040;28;20436;-61
2024/04/07 05:03:48;;;;;;;1.33;1.23;;;13.50;70.60;;;;;;5092243;28;20415;-61
2024/04/07 05:06:16;;;;;;;3.17;1.27;;;13.60;68.30;;;;;;5092741;28;20491;-60
2024/04/07 05:08:42;;;;;;;2.77;2.00;;;13.80;67.60;;;;;;5092729;28;20594;-60
2024/04/07 05:11:09;;;;;;;7.47;2.20;;;14.00;67.70;;;;;;5092411;28;20507;-60
2024/04/07 05:13:35;;;;;;;5.00;1.33;;;14.10;67.60;;;;;;5091795;28;20415;-60
2024/04/07 05:16:02;;;;;;;3.53;1.27;;;14.20;67.00;;;;;;5092709;28;20497;-60
2024/04/07 05:18:28;;;;;;;3.67;1.47;;;14.30;67.60;;;;;;5092387;28;20265;-60
2024/04/07 05:20:55;;;;;;;4.10;1.30;;;14.40;68.30;;;;;;5092422;28;21024;-61
2024/04/07 05:23:21;;;;;;;4.30;1.30;;;14.40;65.80;;;;;;5092860;28;20464;-61
2024/04/07 05:25:47;;;;;;;6.00;1.40;;;14.50;65.70;;;;;;5092783;28;20401;-59
2024/04/07 05:28:12;;;;;;;2.33;1.60;;;14.60;65.80;;;;;;5092499;28;20985;-61
2024/04/07 05:30:38;;;;;;;0.83;0.80;;;14.70;65.10;;;;;;5092198;28;20711;-60
2024/04/07 05:33:05;;;;;;;3.37;1.10;;;14.90;64.00;;;;;;5092569;28;20184;-61
2024/04/07 05:35:34;;;;;;;1.80;0.93;;;14.90;64.40;;;;;;5092502;28;20496;-60
2024/04/07 05:38:00;;;;;;;3.53;1.10;;;15.00;64.50;;;;;;5092329;28;20453;-60
2024/04/07 05:40:26;;;;;;;3.87;1.30;;;15.20;62.10;;;;;;5092082;28;20479;-60
2024/04/07 05:42:53;;;;;;;4.30;1.00;;;15.30;63.50;;;;;;5092276;28;20931;-61
2024/04/07 05:45:19;;;;;;;8.83;1.63;;;15.40;61.30;;;;;;5092368;28;20416;-60
2024/04/07 05:47:54;;;;;;;4.47;2.27;;;15.50;61.30;;;;;;5092400;28;20410;-60
2024/04/07 05:50:20;;;;;;;1.10;0.97;;;15.50;61.80;;;;;;5091879;28;20196;-61
2024/04/07 05:52:46;;;;;;;3.13;1.13;;;15.60;61.90;;;;;;5092154;28;20413;-61
2024/04/07 05:55:12;;;;;;;1.10;1.00;;;15.60;61.00;;;;;;5091770;28;20414;-61
2024/04/07 05:57:39;;;;;;;2.00;1.20;;;15.70;61.70;;;;;;5091677;28;20177;-61
2024/04/07 06:00:09;;;;;;;3.50;1.20;;;15.70;62.10;;;;;;5091693;28;20789;-60
2024/04/07 06:02:35;;;;;;;2.07;1.90;;;15.80;62.70;;;;;;5091354;28;20465;-61
2024/04/07 06:05:01;;;;;;;2.10;0.80;;;15.90;62.70;;;;;;5090920;28;20460;-61
2024/04/07 06:07:27;;;;;;;2.43;1.00;;;15.90;63.70;;;;;;5090677;28;20903;-61
2024/04/07 06:09:53;;;;;;;5.60;2.00;;;15.90;61.90;;;;;;5091656;28;20460;-61
2024/04/07 06:12:18;;;;;;;3.13;2.03;;;16.10;62.20;;;;;;5091628;28;20173;-59
2024/04/07 06:14:46;;;;;;;4.20;0.93;;;16.20;62.00;;;;;;5090977;28;20245;-61
2024/04/07 06:17:11;;;;;;;2.43;1.03;;;16.30;62.60;;;;;;5090663;28;20181;-60
2024/04/07 06:19:37;;;;;;;7.90;2.20;;;16.30;62.60;;;;;;5091325;28;20512;-60
2024/04/07 06:22:03;;;;;;;9.23;1.60;;;16.40;62.00;;;;;;5091589;28;20191;-61
2024/04/07 06:24:29;;;;;;;2.97;1.20;;;16.50;62.20;;;;;;5091418;28;20258;-60
2024/04/07 06:26:54;;;;;;;3.47;1.60;;;16.60;62.00;;;;;;5091707;28;20410;-60
2024/04/07 06:29:20;;;;;;;2.47;1.30;;;16.60;61.00;;;;;;5091021;28;20469;-60
2024/04/07 06:31:46;;;;;;;4.73;1.80;;;16.80;60.20;;;;;;5091152;28;20212;-60
2024/04/07 06:34:11;;;;;;;4.63;1.23;;;16.90;59.80;;;;;;5091546;28;20221;-61
2024/04/07 06:36:37;;;;;;;3.80;1.10;;;17.00;61.60;;;;;;5091788;28;20678;-60
2024/04/07 06:39:02;;;;;;;6.87;1.70;;;17.00;60.20;;;;;;5091506;28;20604;-60
2024/04/07 06:41:28;;;;;;;2.40;1.57;;;17.00;64.20;;;;;;5091767;28;20334;-61
2024/04/07 06:43:54;;;;;;;4.67;1.40;;;16.90;61.20;;;;;;5091617;28;20211;-61
2024/04/07 06:46:19;;;;;;;2.13;1.00;;;16.90;63.40;;;;;;5091488;28;20184;-61
2024/04/07 06:48:45;;;;;;;5.30;1.47;;;17.00;61.10;;;;;;5091418;28;20184;-61
2024/04/07 06:51:11;;;;;;;4.50;2.03;;;17.10;60.10;;;;;;5091622;28;20195;-61
2024/04/07 06:53:38;;;;;;;1.70;1.17;;;17.50;61.00;;;;;;5091700;28;20204;-61
2024/04/07 06:56:04;;;;;;;2.83;0.77;;;18.10;62.80;;;;;;5091486;28;20427;-61
2024/04/07 06:58:31;;;;;;;8.10;1.50;;;18.70;59.10;;;;;;5091459;28;20241;-60
2024/04/07 07:01:00;;;;;;;2.40;1.67;;;19.20;58.80;;;;;;5091208;28;20797;-61
2024/04/07 07:03:26;;;;;;;3.00;1.40;;;19.60;56.90;;;;;;5091653;28;20411;-61
2024/04/07 07:05:51;;;;;;;1.40;1.10;;;20.00;56.40;;;;;;5091461;28;20780;-61
2024/04/07 07:08:18;;;;;;;3.67;1.67;;;20.30;53.70;;;;;;5091387;28;20431;-59
2024/04/07 07:10:59;;;;;;;1.67;1.10;;;20.40;54.50;;;;;;5091052;28;20626;-61
2024/04/07 07:13:40;;;;;;;3.63;1.17;;;20.40;56.60;;;;;;5091284;28;20425;-60
2024/04/07 07:16:05;;;;;;;4.20;1.47;;;20.60;53.80;;;;;;5091271;28;20420;-60
2024/04/07 07:18:31;;;;;;;1.90;1.23;;;20.80;54.60;;;;;;5091257;28;20447;-61
2024/04/07 07:20:56;;;;;;;3.93;1.53;;;21.10;52.80;;;;;;5072929;28;20199;-61
2024/04/07 07:23:22;;;;;;;2.90;1.10;;;21.60;51.60;;;;;;5091870;28;20550;-61
2024/04/07 07:25:48;;;;;;;4.93;1.57;;;22.00;49.90;;;;;;5094798;28;20243;-61
2024/04/07 07:28:13;;;;;;;7.03;1.40;;;22.30;49.90;;;;;;5094836;28;20180;-61
2024/04/07 07:30:39;;;;;;;8.40;1.20;;;22.60;48.60;;;;;;5094443;28;20588;-61
2024/04/07 07:33:05;;;;;;;3.13;1.07;;;23.00;48.80;;;;;;5095176;28;20196;-61
2024/04/07 07:35:32;;;;;;;3.80;0.93;;;23.70;48.10;;;;;;5094768;28;20179;-61
2024/04/07 07:37:58;;;;;;;6.03;2.10;;;24.60;46.20;;;;;;5094639;28;20425;-61
2024/04/07 07:40:23;;;;;;;3.07;1.10;;;25.20;45.00;;;;;;5094251;28;20429;-61
2024/04/07 07:42:49;;;;;;;1.93;1.53;;;25.50;42.60;;;;;;5094700;28;20168;-61
2024/04/07 07:45:20;;;;;;;1.80;1.50;;;25.30;43.10;;;;;;5094588;28;20240;-62
2024/04/07 07:47:46;;;;;;;3.20;1.90;;;25.00;43.30;;;;;;5094435;28;20176;-61
2024/04/07 07:50:12;;;;;;;2.90;1.13;;;24.90;42.90;;;;;;5094268;28;20472;-61
2024/04/07 07:52:38;;;;;;;3.43;2.17;;;24.70;43.50;;;;;;5094453;28;20382;-61
2024/04/07 07:55:04;;;;;;;3.73;1.17;;;23.90;43.20;;;;;;5094246;28;20177;-61
2024/04/07 07:57:30;;;;;;;4.23;1.77;;;23.10;44.70;;;;;;5094321;28;20226;-61
2024/04/07 07:59:55;;;;;;;2.70;1.00;;;22.60;45.30;;;;;;5093903;28;20458;-61
2024/04/07 08:02:21;;;;;;;3.90;1.47;;;22.80;46.40;;;;;;5094370;28;20176;-60
2024/04/07 08:04:46;;;;;;;4.33;1.37;;;23.00;44.60;;;;;;5094196;28;20255;-61
2024/04/07 08:07:12;;;;;;;8.73;1.57;;;22.80;44.80;;;;;;5094586;28;20169;-61
2024/04/07 08:09:38;;;;;;;3.70;1.90;;;22.70;44.80;;;;;;5093696;28;20260;-61
2024/04/07 08:12:03;;;;;;;6.60;1.63;;;22.70;45.30;;;;;;5094036;28;20667;-60
2024/04/07 08:14:30;;;;;;;3.27;1.27;;;22.70;44.30;;;;;;5094021;28;20173;-61
2024/04/07 08:16:55;;;;;;;2.53;1.13;;;22.70;45.10;;;;;;5093934;28;20504;-61
2024/04/07 08:19:22;;;;;;;5.13;2.03;;;22.60;45.00;;;;;;5093735;28;20541;-61
2024/04/07 08:21:47;;;;;;;2.13;1.10;;;23.10;45.20;;;;;;5093704;28;20200;-62
2024/04/07 08:24:13;;;;;;;6.47;1.87;;;24.10;46.20;;;;;;5094249;28;20407;-61
2024/04/07 08:26:38;;;;;;;1.90;1.10;;;25.20;43.40;;;;;;5093797;28;20176;-61
2024/04/07 08:29:04;;;;;;;5.23;3.10;;;26.00;40.80;;;;;;5093564;28;20542;-62
2024/04/07 08:31:30;;;;;;;2.83;1.27;;;27.10;40.10;;;;;;5102580;22;20287;-65
2024/04/07 08:33:55;;;;;;;6.80;1.43;;;28.20;40.20;;;;;;5073322;28;20215;-65
2024/04/07 08:36:21;;;;;;;6.50;1.40;;;29.30;36.90;;;;;;5072149;28;20521;-66
2024/04/07 08:38:46;;;;;;;10.43;1.40;;;29.80;36.10;;;;;;5072983;28;20224;-67
2024/04/07 08:41:12;;;;;;;7.47;1.60;;;30.10;35.90;;;;;;5073095;28;20265;-67
2024/04/07 08:43:43;;;;;;;4.30;1.40;;;28.90;35.90;;;;;;5073225;28;20426;-67
2024/04/07 08:46:13;;;;;;;4.33;1.63;;;28.40;36.60;;;;;;5073129;28;20165;-67
2024/04/07 08:48:45;;;;;;;3.33;1.30;;;28.60;36.80;;;;;;5073068;28;20432;-67
2024/04/07 08:51:12;;;;;;;1.90;1.30;;;28.70;36.40;;;;;;5072686;28;20427;-67
2024/04/07 08:53:41;;;;;;;6.00;1.73;;;29.00;36.30;;;;;;5073026;28;20826;-67
2024/04/07 08:56:08;;;;;;;1.70;1.50;;;29.50;35.10;;;;;;5073021;28;20460;-67
2024/04/07 08:58:36;;;;;;;6.47;1.17;;;29.60;34.90;;;;;;5072670;28;20459;-66
2024/04/07 09:01:03;;;;;;;4.40;1.30;;;28.70;36.10;;;;;;5072539;28;20428;-67
2024/04/07 09:03:29;;;;;;;2.30;1.10;;;28.80;36.30;;;;;;5071495;28;20410;-66
2024/04/07 09:05:56;;;;;;;7.20;1.47;;;29.50;35.10;;;;;;5073126;28;20502;-66
2024/04/07 09:08:22;;;;;;;6.20;1.63;;;30.10;35.00;;;;;;5073788;28;20415;-67
2024/04/07 09:10:47;;;;;;;4.60;1.53;;;30.80;33.80;;;;;;5072357;28;20424;-67
2024/04/07 09:13:13;;;;;;;5.17;1.90;;;30.60;32.90;;;;;;5072657;28;20173;-67
2024/04/07 09:15:39;;;;;;;8.67;1.53;;;30.80;33.30;;;;;;5072609;28;20195;-66
2024/04/07 09:18:05;;;;;;;5.10;1.43;;;31.10;33.20;;;;;;5072491;28;20489;-67
2024/04/07 09:20:32;;;;;;;4.90;1.20;;;31.90;32.90;;;;;;5072133;28;20842;-67
2024/04/07 09:22:58;;;;;;;2.10;0.93;;;32.20;30.50;;;;;;5072362;28;20461;-68
2024/04/07 09:25:23;;;;;;;8.20;1.37;;;31.60;31.60;;;;;;5072402;28;20409;-67
2024/04/07 09:27:49;;;;;;;2.73;1.60;;;31.20;32.20;;;;;;5072335;28;20822;-67
2024/04/07 09:30:15;;;;;;;2.60;1.20;;;30.50;32.30;;;;;;5071793;28;20172;-67
2024/04/07 09:32:44;;;;;;;3.60;1.40;;;30.70;32.10;;;;;;5073285;28;20235;-67
2024/04/07 09:35:09;;;;;;;3.40;1.70;;;30.50;32.40;;;;;;5072187;28;20760;-66
2024/04/07 09:37:38;;;;;;;8.27;1.70;;;30.60;32.00;;;;;;5072199;28;20507;-66
2024/04/07 09:40:05;;;;;;;2.90;1.00;;;30.90;33.40;;;;;;5071959;28;20170;-66
2024/04/07 09:42:31;;;;;;;6.73;2.20;;;31.00;32.00;;;;;;5072255;28;20744;-66
2024/04/07 09:45:01;;;;;;;4.20;1.60;;;30.20;32.50;;;;;;5072178;28;20403;-66
2024/04/07 09:47:27;;;;;;;2.10;1.30;;;29.90;33.50;;;;;;5071721;28;20768;-66
2024/04/07 09:50:24;;;;;;;2.83;1.23;;;30.20;33.60;;;;;;5072216;28;20430;-66
2024/04/07 09:52:51;;;;;;;4.70;1.67;;;30.70;31.60;;;;;;5072042;28;20396;-66
2024/04/07 09:55:19;;;;;;;3.23;1.17;;;31.00;33.20;;;;;;5071912;28;20418;-66
2024/04/07 09:57:45;;;;;;;3.03;1.50;;;30.80;31.40;;;;;;5071770;28;20392;-66
2024/04/07 10:00:12;;;;;;;4.27;1.93;;;30.20;31.90;;;;;;5071607;28;20758;-66
2024/04/07 10:02:39;;;;;;;2.90;1.37;;;29.10;33.60;;;;;;5071935;28;20172;-66
2024/04/07 10:05:07;;;;;;;5.80;1.30;;;28.60;33.70;;;;;;5071733;28;20400;-66
2024/04/07 10:07:34;;;;;;;6.30;1.63;;;28.20;34.70;;;;;;5071922;28;20545;-66
2024/04/07 10:10:02;;;;;;;5.80;1.10;;;28.90;33.40;;;;;;5071994;28;20407;-66
2024/04/07 10:12:29;;;;;;;3.77;1.53;;;29.20;32.70;;;;;;5071638;28;20963;-66
2024/04/07 10:14:55;;;;;;;4.73;1.20;;;29.00;33.10;;;;;;5071711;28;20465;-66
2024/04/07 10:17:22;;;;;;;2.13;1.40;;;29.00;33.10;;;;;;5071633;28;20408;-66
2024/04/07 10:19:51;;;;;;;4.13;1.40;;;29.10;33.50;;;;;;5071582;28;20448;-66
2024/04/07 10:22:17;;;;;;;5.47;1.90;;;29.30;32.60;;;;;;5071598;28;20906;-66
2024/04/07 10:24:48;;;;;;;12.47;2.00;;;29.70;33.00;;;;;;5071693;28;20901;-66
2024/04/07 10:27:20;;;;;;;3.67;1.00;;;29.80;32.60;;;;;;5071581;28;20780;-66
2024/04/07 10:29:51;;;;;;;4.47;1.80;;;29.70;34.50;;;;;;5071488;28;20412;-66
2024/04/07 10:32:27;;;;;;;6.43;1.63;;;29.10;34.70;;;;;;5071389;28;20944;-66
2024/04/07 10:35:00;;;;;;;4.10;1.43;;;28.90;32.20;;;;;;5071811;28;20419;-66
2024/04/07 10:37:26;;;;;;;5.60;1.60;;;28.80;32.50;;;;;;5071511;28;20860;-66
2024/04/07 10:39:52;;;;;;;6.07;1.20;;;29.00;33.70;;;;;;5071141;28;20459;-66
2024/04/07 10:42:17;;;;;;;2.00;1.40;;;29.10;33.50;;;;;;5071441;28;20432;-66
2024/04/07 10:44:43;;;;;;;5.20;2.20;;;29.10;33.10;;;;;;5071654;28;20169;-66
2024/04/07 10:47:10;;;;;;;6.67;1.50;;;29.30;32.90;;;;;;5071256;28;20165;-65
2024/04/07 10:49:37;;;;;;;9.10;1.33;;;29.40;33.90;;;;;;5071019;28;20188;-66
2024/04/07 10:52:03;;;;;;;6.43;1.10;;;29.50;34.50;;;;;;5071120;28;20431;-65
2024/04/07 10:54:33;;;;;;;3.07;1.33;;;29.20;32.70;;;;;;5071349;28;20923;-66
2024/04/07 10:56:58;;;;;;;3.37;1.13;;;29.10;33.60;;;;;;5071207;28;20185;-65
2024/04/07 10:59:24;;;;;;;3.93;1.30;;;29.10;33.20;;;;;;5073789;28;20451;-65
2024/04/07 11:01:50;;;;;;;4.60;1.80;;;29.10;32.60;;;;;;5075101;28;20201;-65
2024/04/07 11:04:15;;;;;;;5.90;1.60;;;29.20;33.60;;;;;;5075116;28;20662;-64
2024/04/07 11:06:41;;;;;;;2.07;1.00;;;29.10;31.80;;;;;;5075046;28;20166;-65
2024/04/07 11:09:06;;;;;;;2.07;1.40;;;28.20;33.80;;;;;;5074860;28;20220;-65
2024/04/07 11:11:32;;;;;;;7.37;1.60;;;27.70;33.20;;;;;;5074799;28;20197;-65
2024/04/07 11:13:58;;;;;;;8.97;1.43;;;27.50;35.30;;;;;;5074985;28;20582;-65
2024/04/07 11:16:24;;;;;;;4.67;1.27;;;27.30;34.60;;;;;;5075214;28;20180;-66
2024/04/07 11:18:49;;;;;;;5.40;1.50;;;27.50;35.80;;;;;;5074721;28;20556;-66
2024/04/07 11:21:16;;;;;;;3.67;1.00;;;27.40;34.50;;;;;;5074571;28;20194;-66
2024/04/07 11:23:41;;;;;;;7.50;1.50;;;27.20;34.10;;;;;;5074722;28;20230;-65
2024/04/07 11:26:07;;;;;;;3.53;2.13;;;26.70;34.90;;;;;;5074630;28;20400;-66
2024/04/07 11:28:33;;;;;;;3.40;1.20;;;26.00;34.90;;;;;;5074726;28;20176;-65
2024/04/07 11:30:59;;;;;;;6.57;1.70;;;25.50;35.10;;;;;;5074332;28;20691;-64
2024/04/07 11:33:25;;;;;;;3.20;1.67;;;25.30;35.70;;;;;;5074555;28;20200;-65
2024/04/07 11:35:53;;;;;;;3.30;1.33;;;25.20;34.90;;;;;;5074466;28;20177;-64
2024/04/07 11:38:18;;;;;;;1.43;1.20;;;25.20;35.30;;;;;;5074604;28;20789;-65
2024/04/07 11:40:44;;;;;;;4.10;1.30;;;25.20;34.70;;;;;;5074136;28;20402;-65
2024/04/07 11:43:10;;;;;;;1.33;1.00;;;25.10;35.20;;;;;;5074402;28;20613;-64
2024/04/07 11:45:38;;;;;;;6.63;1.57;;;25.00;35.50;;;;;;5074485;28;20170;-65
2024/04/07 11:48:05;;;;;;;4.93;2.30;;;25.00;35.90;;;;;;5074285;28;20442;-65
2024/04/07 11:50:31;;;;;;;3.53;1.30;;;25.10;36.00;;;;;;5073846;28;20398;-66
2024/04/07 11:52:57;;;;;;;4.40;1.77;;;25.00;35.90;;;;;;5074353;28;20979;-63
2024/04/07 11:55:23;;;;;;;2.97;1.50;;;25.00;35.80;;;;;;5074551;28;20491;-63
2024/04/07 11:57:49;;;;;;;1.20;0.90;;;25.10;35.80;;;;;;5074288;28;20173;-64
2024/04/07 12:00:14;;;;;;;3.53;1.33;;;25.00;35.90;;;;;;5074017;28;20917;-63
2024/04/07 12:02:40;;;;;;;1.83;1.20;;;24.90;35.90;;;;;;5074148;28;20212;-63
2024/04/07 12:05:07;;;;;;;2.87;1.47;;;24.70;36.00;;;;;;5073907;28;20170;-63
2024/04/07 12:07:34;;;;;;;3.53;1.13;;;24.80;37.40;;;;;;5074253;28;20581;-63
2024/04/07 12:10:00;;;;;;;3.90;1.40;;;24.70;35.70;;;;;;5073774;28;20756;-63
2024/04/07 12:12:26;;;;;;;1.90;0.90;;;24.50;36.30;;;;;;5073916;28;20444;-63
2024/04/07 12:14:52;;;;;;;4.50;1.30;;;24.60;36.90;;;;;;5074048;28;20408;-63
2024/04/07 12:17:19;;;;;;;5.47;1.40;;;24.70;36.60;;;;;;5073837;28;20491;-63
2024/04/07 12:19:45;;;;;;;4.20;1.00;;;24.70;36.90;;;;;;5073420;28;20609;-64
2024/04/07 12:22:15;;;;;;;4.43;1.73;;;24.80;37.40;;;;;;5073703;28;20409;-63
2024/04/07 12:24:42;;;;;;;2.60;1.20;;;24.60;37.00;;;;;;5073729;28;20802;-62
2024/04/07 12:27:07;;;;;;;2.40;1.20;;;24.60;36.90;;;;;;5073943;28;20480;-63
2024/04/07 12:29:33;;;;;;;3.33;0.83;;;24.60;37.00;;;;;;5073379;28;20386;-63
2024/04/07 12:32:00;;;;;;;3.93;1.20;;;24.60;36.80;;;;;;5081357;28;20213;-64
2024/04/07 12:34:25;;;;;;;4.00;1.30;;;24.40;37.70;;;;;;5082843;28;20395;-64
2024/04/07 12:36:51;;;;;;;5.13;1.73;;;24.30;38.00;;;;;;5075337;28;20400;-64
2024/04/07 12:39:17;;;;;;;1.97;1.50;;;24.30;37.30;;;;;;5073418;28;20686;-64
2024/04/07 12:41:44;;;;;;;1.77;1.10;;;24.30;37.30;;;;;;5081438;28;20435;-63
2024/04/07 12:44:11;;;;;;;5.07;1.57;;;24.30;37.70;;;;;;5080152;28;20176;-64
2024/04/07 12:46:36;;;;;;;5.60;1.47;;;24.30;38.10;;;;;;5082856;28;20983;-64